createdAt,value
2019-03-04T00:02:07.633Z,9.03
2019-03-04T00:04:39.702Z,9.07
2019-03-04T00:07:11.554Z,9.63
2019-03-04T00:09:44.055Z,7.83
2019-03-04T00:12:15.942Z,7.13
2019-03-04T00:14:47.948Z,8.83
2019-03-04T00:17:19.875Z,6.83
2019-03-04T00:19:51.758Z,8.03
2019-03-04T00:22:24.731Z,9.50
2019-03-04T00:24:56.683Z,7.73
2019-03-04T00:27:28.556Z,8.37
2019-03-04T00:30:00.522Z,7.17
2019-03-04T00:32:32.744Z,10.13
2019-03-04T00:35:05.007Z,7.23
2019-03-04T00:37:36.771Z,9.30
2019-03-04T00:40:10.449Z,6.57
2019-03-04T00:42:42.212Z,9.03
2019-03-04T00:45:14.193Z,6.57
2019-03-04T00:47:45.960Z,7.73
2019-03-04T00:50:18.124Z,7.20
2019-03-04T00:52:49.903Z,8.80
2019-03-04T00:55:21.953Z,7.20
2019-03-04T00:57:53.739Z,7.57
2019-03-04T01:00:26.263Z,8.70
2019-03-04T01:02:58.030Z,8.53
2019-03-04T01:05:29.905Z,8.53
2019-03-04T01:08:01.644Z,6.00
2019-03-04T01:10:33.827Z,7.63
2019-03-04T01:13:05.915Z,6.47
2019-03-04T01:15:38.050Z,7.30
2019-03-04T01:18:09.798Z,6.87
2019-03-04T01:20:41.865Z,5.73
2019-03-04T01:23:13.605Z,8.57
2019-03-04T01:25:45.449Z,6.63
2019-03-04T01:28:17.252Z,7.17
2019-03-04T01:30:49.321Z,8.37
2019-03-04T01:33:21.253Z,7.60
2019-03-04T01:35:53.342Z,8.03
2019-03-04T01:38:25.120Z,8.70
2019-03-04T01:40:57.175Z,9.03
2019-03-04T01:43:28.954Z,6.00
2019-03-04T01:46:01.002Z,9.67
2019-03-04T01:48:32.769Z,8.70
2019-03-04T01:51:04.750Z,9.80
2019-03-04T01:53:36.516Z,7.13
2019-03-04T01:56:08.665Z,7.97
2019-03-04T01:58:40.453Z,5.70
2019-03-04T02:01:12.245Z,4.27
2019-03-04T02:03:44.001Z,7.73
2019-03-04T02:06:16.003Z,7.43
2019-03-04T02:08:47.763Z,5.40
2019-03-04T02:11:19.935Z,7.10
2019-03-04T02:13:51.741Z,7.70
2019-03-04T02:16:23.847Z,6.67
2019-03-04T02:18:55.604Z,6.70
2019-03-04T02:21:27.786Z,9.07
2019-03-04T02:24:19.162Z,5.93
2019-03-04T02:26:51.276Z,8.10
2019-03-04T02:29:23.088Z,6.50
2019-03-04T02:31:55.088Z,5.07
2019-03-04T02:34:26.830Z,5.33
2019-03-04T02:36:58.918Z,6.63
2019-03-04T02:39:30.723Z,6.30
2019-03-04T02:42:02.892Z,4.90
2019-03-04T02:44:34.722Z,5.00
2019-03-04T02:47:06.754Z,5.70
2019-03-04T02:49:38.522Z,4.93
2019-03-04T02:52:10.588Z,4.57
2019-03-04T02:54:42.320Z,4.50
2019-03-04T02:57:14.338Z,3.70
2019-03-04T02:59:46.089Z,4.60
2019-03-04T03:02:17.891Z,5.90
2019-03-04T03:04:49.658Z,5.10
2019-03-04T03:07:22.799Z,4.43
2019-03-04T03:09:55.875Z,5.07
2019-03-04T03:12:28.455Z,5.27
2019-03-04T03:15:00.451Z,6.37
2019-03-04T03:17:32.907Z,5.40
2019-03-04T03:20:04.868Z,6.30
2019-03-04T03:22:36.925Z,4.70
2019-03-04T03:25:09.218Z,3.83
2019-03-04T03:27:41.321Z,4.70
2019-03-04T03:30:13.394Z,5.27
2019-03-04T03:32:45.215Z,4.80
2019-03-04T03:35:17.055Z,4.43
2019-03-04T03:37:48.886Z,3.77
2019-03-04T03:40:20.785Z,5.07
2019-03-04T03:42:52.623Z,4.43
2019-03-04T03:45:24.349Z,3.77
2019-03-04T03:47:56.216Z,3.43
2019-03-04T03:50:27.946Z,3.53
2019-03-04T03:53:00.089Z,4.17
2019-03-04T03:55:32.793Z,4.57
2019-03-04T03:58:05.023Z,4.33
2019-03-04T04:00:36.759Z,3.87
2019-03-04T04:03:08.852Z,3.73
2019-03-04T04:05:40.580Z,5.77
2019-03-04T04:08:12.355Z,3.80
2019-03-04T04:10:44.101Z,2.93
2019-03-04T04:13:16.361Z,4.27
2019-03-04T04:15:48.211Z,4.43
2019-03-04T04:18:20.321Z,3.47
2019-03-04T04:20:52.139Z,3.90
2019-03-04T04:23:24.253Z,3.20
2019-03-04T04:25:56.024Z,4.93
2019-03-04T04:28:28.717Z,3.83
2019-03-04T04:31:00.609Z,4.23
2019-03-04T04:33:32.619Z,5.70
2019-03-04T04:36:04.441Z,2.63
2019-03-04T04:38:36.249Z,5.27
2019-03-04T04:41:08.039Z,2.70
2019-03-04T04:43:39.790Z,3.70
2019-03-04T04:46:11.579Z,3.73
2019-03-04T04:48:44.373Z,4.10
2019-03-04T04:51:16.148Z,3.83
2019-03-04T04:53:48.080Z,4.97
2019-03-04T04:56:19.852Z,4.20
2019-03-04T04:58:52.051Z,3.77
2019-03-04T05:01:23.772Z,4.97
2019-03-04T05:03:55.765Z,3.93
2019-03-04T05:06:27.534Z,4.27
2019-03-04T05:08:59.801Z,4.57
2019-03-04T05:11:31.625Z,4.27
2019-03-04T05:14:04.033Z,2.90
2019-03-04T05:16:35.800Z,3.57
2019-03-04T05:19:07.864Z,3.10
2019-03-04T05:21:39.616Z,4.67
2019-03-04T05:24:11.624Z,1.80
2019-03-04T05:26:43.354Z,4.73
2019-03-04T05:29:15.454Z,2.83
2019-03-04T05:31:47.198Z,4.37
2019-03-04T05:34:19.237Z,3.53
2019-03-04T05:36:50.989Z,3.10
2019-03-04T05:39:22.926Z,4.30
2019-03-04T05:41:54.704Z,4.47
2019-03-04T05:44:26.899Z,2.93
2019-03-04T05:46:58.665Z,3.07
2019-03-04T05:49:30.557Z,3.47
2019-03-04T05:52:02.342Z,4.70
2019-03-04T05:54:34.534Z,3.97
2019-03-04T05:57:06.415Z,3.90
2019-03-04T05:59:39.036Z,3.30
2019-03-04T06:02:12.384Z,4.10
2019-03-04T06:04:47.099Z,3.47
2019-03-04T06:07:37.697Z,3.80
2019-03-04T06:10:13.063Z,2.77
2019-03-04T06:12:44.847Z,3.37
2019-03-04T06:15:19.438Z,2.47
2019-03-04T06:17:51.333Z,4.40
2019-03-04T06:20:23.455Z,3.77
2019-03-04T06:22:55.265Z,3.00
2019-03-04T06:25:28.728Z,3.30
2019-03-04T06:28:01.757Z,3.43
2019-03-04T06:30:34.172Z,4.83
2019-03-04T06:33:06.013Z,3.50
2019-03-04T06:35:37.890Z,3.40
2019-03-04T06:38:09.700Z,3.40
2019-03-04T06:40:41.861Z,3.10
2019-03-04T06:43:13.649Z,3.17
2019-03-04T06:45:46.067Z,3.77
2019-03-04T06:48:17.905Z,3.70
2019-03-04T06:50:52.552Z,3.40
2019-03-04T06:53:53.111Z,2.83
2019-03-04T06:57:00.025Z,3.10
2019-03-04T07:00:37.046Z,3.77
2019-03-04T07:03:23.116Z,5.03
2019-03-04T07:05:55.572Z,2.57
2019-03-04T07:09:16.603Z,3.53
2019-03-04T07:11:53.027Z,3.07
2019-03-04T07:14:25.191Z,3.30
2019-03-04T07:16:57.127Z,3.23
2019-03-04T07:19:35.052Z,4.30
2019-03-04T07:22:06.921Z,3.10
2019-03-04T07:24:38.994Z,3.50
2019-03-04T07:27:10.789Z,3.43
2019-03-04T07:29:42.920Z,3.60
2019-03-04T07:32:14.700Z,3.13
2019-03-04T07:34:46.877Z,2.33
2019-03-04T07:37:18.789Z,3.30
2019-03-04T07:39:50.856Z,3.30
2019-03-04T07:42:22.655Z,3.60
2019-03-04T07:44:54.597Z,2.40
2019-03-04T07:47:26.351Z,2.83
2019-03-04T07:49:58.511Z,3.43
2019-03-04T07:52:30.310Z,3.20
2019-03-04T07:55:02.243Z,2.80
2019-03-04T07:57:34.063Z,3.80
2019-03-04T08:00:06.952Z,3.27
2019-03-04T08:02:38.830Z,4.07
2019-03-04T08:05:11.808Z,3.37
2019-03-04T08:07:50.091Z,3.73
2019-03-04T08:11:21.817Z,4.43
2019-03-04T08:13:59.260Z,3.30
2019-03-04T08:16:31.365Z,3.63
2019-03-04T08:19:03.279Z,3.87
2019-03-04T08:21:35.456Z,5.97
2019-03-04T08:24:07.285Z,3.57
2019-03-04T08:26:39.868Z,3.90
2019-03-04T08:29:12.216Z,3.67
2019-03-04T08:31:45.558Z,3.80
2019-03-04T08:34:17.427Z,3.23
2019-03-04T08:36:49.800Z,4.30
2019-03-04T08:39:23.005Z,3.40
2019-03-04T08:41:55.081Z,4.90
2019-03-04T08:44:26.868Z,4.07
2019-03-04T08:46:58.812Z,3.57
2019-03-04T08:49:30.639Z,3.80
2019-03-04T08:52:02.812Z,4.17
2019-03-04T08:54:34.636Z,3.87
2019-03-04T08:57:06.975Z,8.93
2019-03-04T08:59:38.984Z,3.57
2019-03-04T09:02:11.457Z,5.27
2019-03-04T09:04:43.982Z,4.50
2019-03-04T09:07:16.190Z,4.37
2019-03-04T09:09:48.026Z,3.90
2019-03-04T09:12:20.109Z,3.40
2019-03-04T09:14:52.169Z,3.57
2019-03-04T09:17:25.416Z,2.27
2019-03-04T09:19:57.433Z,3.50
2019-03-04T09:22:29.903Z,2.90
2019-03-04T09:25:02.072Z,2.87
2019-03-04T09:27:34.110Z,3.20
2019-03-04T09:30:07.355Z,2.93
2019-03-04T09:32:39.861Z,3.73
2019-03-04T09:35:14.560Z,2.63
2019-03-04T09:37:47.104Z,2.97
2019-03-04T09:40:19.020Z,3.83
2019-03-04T09:42:50.973Z,3.60
2019-03-04T09:45:24.066Z,3.20
2019-03-04T09:47:56.406Z,4.20
2019-03-04T09:50:28.193Z,3.80
2019-03-04T09:53:00.721Z,3.87
2019-03-04T09:55:32.589Z,2.87
2019-03-04T09:58:04.554Z,2.97
2019-03-04T10:00:40.655Z,3.23
2019-03-04T10:04:04.697Z,3.23
2019-03-04T10:07:28.827Z,2.80
2019-03-04T10:10:44.880Z,5.87
2019-03-04T10:14:06.423Z,2.67
2019-03-04T10:17:02.184Z,2.83
2019-03-04T10:20:16.363Z,2.83
2019-03-04T10:23:56.109Z,4.23
2019-03-04T10:27:35.859Z,2.03
2019-03-04T10:30:41.514Z,2.70
2019-03-04T10:34:32.058Z,2.80
2019-03-04T10:37:51.794Z,2.23
2019-03-04T10:41:01.027Z,2.57
2019-03-04T10:44:42.990Z,2.33
2019-03-04T10:47:14.748Z,2.50
2019-03-04T10:49:46.830Z,2.20
2019-03-04T10:52:18.974Z,3.03
2019-03-04T10:54:51.056Z,2.93
2019-03-04T10:57:22.865Z,2.77
2019-03-04T10:59:54.974Z,2.70
2019-03-04T11:02:26.779Z,2.83
2019-03-04T11:04:58.809Z,2.77
2019-03-04T11:07:30.641Z,3.40
2019-03-04T11:10:02.935Z,3.33
2019-03-04T11:12:35.138Z,2.80
2019-03-04T11:15:18.063Z,2.87
2019-03-04T11:17:49.928Z,2.90
2019-03-04T11:20:21.898Z,2.70
2019-03-04T11:22:53.742Z,2.93
2019-03-04T11:25:25.795Z,2.23
2019-03-04T11:27:57.783Z,2.77
2019-03-04T11:30:31.245Z,2.47
2019-03-04T11:33:03.186Z,2.63
2019-03-04T11:35:35.477Z,2.07
2019-03-04T11:38:23.982Z,2.67
2019-03-04T11:40:56.029Z,1.80
2019-03-04T11:43:27.891Z,2.53
2019-03-04T11:46:00.012Z,3.00
2019-03-04T11:48:31.788Z,1.97
2019-03-04T11:51:03.838Z,2.37
2019-03-04T11:53:35.698Z,2.37
2019-03-04T11:56:08.166Z,1.73
2019-03-04T11:58:40.193Z,2.30
2019-03-04T12:01:31.083Z,2.70
2019-03-04T12:04:02.933Z,2.40
2019-03-04T12:06:35.809Z,2.37
2019-03-04T12:09:15.571Z,2.13
2019-03-04T12:11:47.447Z,2.00
2019-03-04T12:14:19.295Z,2.43
2019-03-04T12:16:51.325Z,2.17
2019-03-04T12:19:23.298Z,2.47
2019-03-04T12:21:55.364Z,3.90
2019-03-04T12:24:27.228Z,2.30
2019-03-04T12:26:59.705Z,2.73
2019-03-04T12:29:31.604Z,3.37
2019-03-04T12:32:25.080Z,2.47
2019-03-04T12:34:56.887Z,2.23
2019-03-04T12:37:28.854Z,2.50
2019-03-04T12:40:00.678Z,3.47
2019-03-04T12:51:23.244Z,2.37
2019-03-04T12:53:52.053Z,2.40
2019-03-04T12:56:24.078Z,2.37
2019-03-04T12:58:56.187Z,2.60
2019-03-04T13:01:28.265Z,3.03
2019-03-04T13:04:00.082Z,2.27
2019-03-04T13:06:32.078Z,2.27
2019-03-04T13:09:14.220Z,2.03
2019-03-04T13:11:41.102Z,2.60
2019-03-04T13:14:13.214Z,2.43
2019-03-04T13:16:45.138Z,3.10
2019-03-04T13:19:17.381Z,2.73
2019-03-04T13:21:49.440Z,2.77
2019-03-04T13:24:21.310Z,2.73
2019-03-04T13:26:53.281Z,2.40
2019-03-04T13:29:25.705Z,3.00
2019-03-04T13:31:57.709Z,2.53
2019-03-04T13:34:29.478Z,2.73
2019-03-04T13:37:01.540Z,2.27
2019-03-04T13:39:33.366Z,2.60
2019-03-04T13:42:05.964Z,2.43
2019-03-04T13:44:37.747Z,1.90
2019-03-04T13:47:09.658Z,2.17
2019-03-04T13:49:41.595Z,2.37
2019-03-04T13:52:15.069Z,2.67
2019-03-04T13:54:46.857Z,2.10
2019-03-04T13:57:19.085Z,2.17
2019-03-04T13:59:51.133Z,2.60
2019-03-04T14:02:23.101Z,2.07
2019-03-04T14:04:54.953Z,2.13
2019-03-04T14:07:27.142Z,2.33
2019-03-04T14:09:59.028Z,2.27
2019-03-04T14:12:31.091Z,2.93
2019-03-04T14:15:03.303Z,2.33
2019-03-04T14:17:36.429Z,2.70
2019-03-04T14:20:09.507Z,2.13
2019-03-04T14:22:41.371Z,2.50
2019-03-04T14:25:13.412Z,3.00
2019-03-04T14:27:45.506Z,2.87
2019-03-04T14:30:18.320Z,2.40
2019-03-04T14:32:50.476Z,2.23
2019-03-04T14:35:22.456Z,2.07
2019-03-04T14:37:54.557Z,2.10
2019-03-04T14:40:26.369Z,2.23
2019-03-04T14:42:58.433Z,2.30
2019-03-04T14:45:30.555Z,3.37
2019-03-04T14:48:02.775Z,3.00
2019-03-04T14:50:34.619Z,3.30
2019-03-04T14:53:06.786Z,2.53
2019-03-04T14:55:38.740Z,1.90
2019-03-04T14:58:10.648Z,2.57
2019-03-04T15:00:44.112Z,2.83
2019-03-04T15:03:23.227Z,2.80
2019-03-04T15:05:49.800Z,2.33
2019-03-04T15:08:21.968Z,3.60
2019-03-04T15:10:53.999Z,2.63
2019-03-04T15:13:26.317Z,2.73
2019-03-04T15:16:01.445Z,2.27
2019-03-04T15:18:32.173Z,2.07
2019-03-04T15:21:04.432Z,1.70
2019-03-04T15:23:36.715Z,2.50
2019-03-04T15:26:08.609Z,2.53
2019-03-04T15:28:40.858Z,3.00
2019-03-04T15:31:13.030Z,3.10
2019-03-04T15:33:45.309Z,2.53
2019-03-04T15:36:17.280Z,2.43
2019-03-04T15:38:49.355Z,2.80
2019-03-04T15:41:22.456Z,3.07
2019-03-04T15:43:54.679Z,2.20
2019-03-04T15:46:26.832Z,2.53
2019-03-04T15:48:59.039Z,2.60
2019-03-04T15:51:30.964Z,2.57
2019-03-04T15:54:03.030Z,2.60
2019-03-04T15:56:35.554Z,1.70
2019-03-04T15:59:08.306Z,2.70
2019-03-04T16:01:41.728Z,3.37
2019-03-04T16:04:16.440Z,1.63
2019-03-04T16:06:48.206Z,2.37
2019-03-04T16:09:23.162Z,2.30
2019-03-04T16:11:54.929Z,1.90
2019-03-04T16:14:26.882Z,2.20
2019-03-04T16:16:58.728Z,2.73
2019-03-04T16:19:30.878Z,3.30
2019-03-04T16:22:02.800Z,3.33
2019-03-04T16:24:34.899Z,2.87
2019-03-04T16:27:13.829Z,3.80
2019-03-04T16:29:45.753Z,3.60
2019-03-04T16:32:17.522Z,3.77
2019-03-04T16:34:49.422Z,3.10
2019-03-04T16:37:21.422Z,4.40
2019-03-04T16:39:53.627Z,4.10
2019-03-04T16:42:25.418Z,5.60
2019-03-04T16:44:57.304Z,7.47
2019-03-04T16:47:29.329Z,6.03
2019-03-04T16:50:01.497Z,5.90
2019-03-04T16:52:33.747Z,5.00
2019-03-04T16:55:05.940Z,5.20
2019-03-04T16:57:37.887Z,5.73
2019-03-04T17:00:14.209Z,5.80
2019-03-04T17:02:46.485Z,6.00
2019-03-04T17:05:20.302Z,4.50
2019-03-04T17:07:52.488Z,4.53
2019-03-04T17:10:25.279Z,5.50
2019-03-04T17:12:58.011Z,5.50
2019-03-04T17:15:30.484Z,4.63
2019-03-04T17:18:02.739Z,6.20
2019-03-04T17:20:35.005Z,5.30
2019-03-04T17:23:07.764Z,4.23
2019-03-04T17:25:40.229Z,5.60
2019-03-04T17:28:12.529Z,4.70
2019-03-04T17:30:44.662Z,4.13
2019-03-04T17:33:18.291Z,3.70
2019-03-04T17:35:50.783Z,5.10
2019-03-04T17:38:23.141Z,6.50
2019-03-04T17:40:55.905Z,6.20
2019-03-04T17:43:28.057Z,4.30
2019-03-04T17:46:00.390Z,4.07
2019-03-04T17:48:33.632Z,5.03
2019-03-04T17:51:06.288Z,4.40
2019-03-04T17:53:39.069Z,5.13
2019-03-04T17:56:11.907Z,4.97
2019-03-04T17:58:45.123Z,4.60
2019-03-04T18:01:19.177Z,4.00
2019-03-04T18:03:52.119Z,4.03
2019-03-04T18:06:25.830Z,3.73
2019-03-04T18:08:58.691Z,3.90
2019-03-04T18:11:31.886Z,4.40
2019-03-04T18:14:05.196Z,4.30
2019-03-04T18:16:37.958Z,3.87
2019-03-04T18:19:11.389Z,3.40
2019-03-04T18:21:44.113Z,3.87
2019-03-04T18:24:16.897Z,3.77
2019-03-04T18:26:57.820Z,3.40
2019-03-04T18:30:32.651Z,3.97
2019-03-04T18:34:16.277Z,3.90
2019-03-04T18:37:41.625Z,3.73
2019-03-04T18:41:31.201Z,3.57
2019-03-04T18:45:03.121Z,4.90
2019-03-04T18:48:26.177Z,3.70
2019-03-04T18:50:58.818Z,3.50
2019-03-04T18:53:32.220Z,4.23
2019-03-04T18:56:05.234Z,3.30
2019-03-04T18:58:37.473Z,3.70
2019-03-04T19:01:10.454Z,3.67
2019-03-04T19:03:42.825Z,1.77
2019-03-04T19:06:16.212Z,2.03
2019-03-04T19:08:48.859Z,2.80
2019-03-04T19:11:20.899Z,2.43
2019-03-04T19:13:53.268Z,2.47
2019-03-04T19:16:25.538Z,2.70
2019-03-04T19:18:57.862Z,2.20
2019-03-04T19:21:30.038Z,2.40
2019-03-04T19:24:02.734Z,2.57
2019-03-04T19:26:35.038Z,2.37
2019-03-04T19:29:07.765Z,2.20
2019-03-04T19:31:41.010Z,2.50
2019-03-04T19:34:13.933Z,1.77
2019-03-04T19:36:46.508Z,1.97
2019-03-04T19:39:19.949Z,2.60
2019-03-04T19:41:52.228Z,2.40
2019-03-04T19:44:24.577Z,2.53
2019-03-04T19:46:56.849Z,2.03
2019-03-04T19:49:29.500Z,2.47
2019-03-04T19:52:01.907Z,2.57
2019-03-04T19:54:34.378Z,2.73
2019-03-04T19:57:06.587Z,1.80
2019-03-04T19:59:38.763Z,2.57
2019-03-04T20:02:11.920Z,1.80
2019-03-04T20:04:45.437Z,2.20
2019-03-04T20:07:17.880Z,1.90
2019-03-04T20:09:50.273Z,2.00
2019-03-04T20:12:22.499Z,2.63
2019-03-04T20:14:54.803Z,2.07
2019-03-04T20:17:27.858Z,2.57
2019-03-04T20:19:59.985Z,2.40
2019-03-04T20:22:32.094Z,1.80
2019-03-04T20:25:04.931Z,2.53
2019-03-04T20:27:37.353Z,2.20
2019-03-04T20:30:10.972Z,2.27
2019-03-04T20:32:43.350Z,2.00
2019-03-04T20:35:16.832Z,2.87
2019-03-04T20:37:51.858Z,2.73
2019-03-04T20:40:25.022Z,2.17
2019-03-04T20:42:57.908Z,2.40
2019-03-04T20:45:30.566Z,2.70
2019-03-04T20:48:02.645Z,2.30
2019-03-04T20:50:34.726Z,2.27
2019-03-04T20:53:06.911Z,2.07
2019-03-04T20:55:38.976Z,2.07
2019-03-04T20:58:10.911Z,2.47
2019-03-04T21:00:43.653Z,2.00
2019-03-04T21:03:15.838Z,2.20
2019-03-04T21:05:48.092Z,2.13
2019-03-04T21:08:20.377Z,1.50
2019-03-04T21:10:52.640Z,1.90
2019-03-04T21:13:35.077Z,2.07
2019-03-04T21:16:00.677Z,1.70
2019-03-04T21:18:32.740Z,2.70
2019-03-04T21:21:06.444Z,1.83
2019-03-04T21:23:40.491Z,2.27
2019-03-04T21:26:24.509Z,2.53
2019-03-04T21:29:49.946Z,2.93
2019-03-04T21:33:09.402Z,2.10
2019-03-04T21:36:34.195Z,2.30
2019-03-04T21:39:08.196Z,2.03
2019-03-04T21:42:22.852Z,5.60
2019-03-04T21:45:42.059Z,2.57
2019-03-04T21:48:32.644Z,1.83
2019-03-04T21:51:38.452Z,2.60
2019-03-04T21:54:10.856Z,2.40
2019-03-04T21:57:25.479Z,3.00
2019-03-04T21:59:57.677Z,3.23
2019-03-04T22:02:58.579Z,2.50
2019-03-04T22:05:30.806Z,2.23
2019-03-04T22:08:02.940Z,1.60
2019-03-04T22:10:35.251Z,2.63
2019-03-04T22:13:07.706Z,2.60
2019-03-04T22:15:39.576Z,1.97
2019-03-04T22:18:13.100Z,2.30
2019-03-04T22:20:46.089Z,1.97
2019-03-04T22:23:18.229Z,2.70
2019-03-04T22:26:01.305Z,2.47
2019-03-04T22:28:24.118Z,2.50
2019-03-04T22:30:55.904Z,2.50
2019-03-04T22:33:27.813Z,2.10
2019-03-04T22:35:59.671Z,3.40
2019-03-04T22:38:31.875Z,2.63
2019-03-04T22:41:04.079Z,3.50
2019-03-04T22:43:35.962Z,2.90
2019-03-04T22:46:07.839Z,3.07
2019-03-04T22:48:39.747Z,3.10
2019-03-04T22:51:11.650Z,2.53
2019-03-04T22:53:43.767Z,2.63
2019-03-04T22:56:15.893Z,2.67
2019-03-04T22:58:47.970Z,2.93
2019-03-04T23:01:59.480Z,2.50
2019-03-04T23:05:13.940Z,2.97
2019-03-04T23:07:52.985Z,2.50
2019-03-04T23:10:49.785Z,4.30
2019-03-04T23:14:06.846Z,4.03
2019-03-04T23:16:39.100Z,3.87
2019-03-04T23:19:11.025Z,4.83
2019-03-04T23:21:43.266Z,3.67
2019-03-04T23:24:15.142Z,3.00
2019-03-04T23:26:47.655Z,3.40
2019-03-04T23:29:19.767Z,3.23
2019-03-04T23:31:51.706Z,2.97
2019-03-04T23:34:24.444Z,6.47
2019-03-04T23:36:56.532Z,4.13
2019-03-04T23:39:28.320Z,3.20
2019-03-04T23:42:00.684Z,2.23
2019-03-04T23:44:32.486Z,2.53
2019-03-04T23:47:04.427Z,3.13
2019-03-04T23:49:36.268Z,2.07
2019-03-04T23:52:08.193Z,2.53
2019-03-04T23:54:39.979Z,2.17
2019-03-04T23:57:12.217Z,2.67
2019-03-04T23:59:44.225Z,2.30
